Time;durP1;ratioP1;P1;durP2;ratioP2;P2;SDS_P1;SDS_P2;PMS_P1;PMS_P2;Temp;Humidity;BMP_temperature;BMP_pressure;BME280_temperature;BME280_humidity;BME280_pressure;Samples;Min_cycle;Max_cycle;Signal;HPM_P1;HPM_P2
2022/03/29 00:04:00;;;;;;;1999.90;999.90;;;;;;;8.74;65.05;100916.78;15440709;28;20045;-59
2022/03/29 00:11:34;;;;;;;1999.90;999.90;;;;;;;8.94;64.66;100907.91;15454663;28;20749;-60
2022/03/29 00:19:06;;;;;;;1999.90;999.90;;;;;;;8.82;64.22;100906.84;15455087;28;20472;-61
2022/03/29 00:26:59;;;;;;;1999.90;999.90;;;;;;;8.70;65.75;100887.13;15438816;28;20046;-61
2022/03/29 00:34:42;;;;;;;1999.90;999.90;;;;;;;8.45;67.00;100886.63;15438558;28;20054;-60
2022/03/29 00:42:15;;;;;;;1999.90;999.90;;;;;;;8.62;66.42;100892.31;15440623;28;20073;-60
2022/03/29 00:49:48;;;;;;;1999.90;999.90;;;;;;;8.58;66.24;100882.97;15437251;28;20070;-60
2022/03/29 00:57:22;;;;;;;1999.90;999.90;;;;;;;8.44;66.79;100868.31;15436489;28;20133;-57
2022/03/29 01:04:57;;;;;;;1999.90;999.90;;;;;;;8.58;66.75;100871.00;15438093;28;20539;-58
2022/03/29 01:12:32;;;;;;;1999.90;999.90;;;;;;;8.60;67.37;100865.94;15435485;28;20070;-59
2022/03/29 01:20:10;;;;;;;1999.90;999.90;;;;;;;8.92;66.71;100867.63;15437018;28;20529;-59
2022/03/29 01:27:45;;;;;;;1999.90;999.90;;;;;;;8.70;67.04;100856.53;15437203;28;20150;-57
2022/03/29 01:35:19;;;;;;;1999.90;999.90;;;;;;;8.82;67.20;100851.19;15463077;28;20034;-58
2022/03/29 01:42:53;;;;;;;;;;;;;;;9.12;66.46;100839.25;15429586;28;20043;-58
2022/03/29 01:50:25;;;;;;;1999.90;999.90;;;;;;;8.96;67.23;100836.09;15436081;28;19922;-60
2022/03/29 01:57:59;;;;;;;1999.90;999.90;;;;;;;8.70;67.94;100815.63;15450289;28;20042;-61
2022/03/29 02:05:35;;;;;;;1999.90;999.90;;;;;;;9.11;66.74;100818.13;15434275;28;20133;-61
2022/03/29 02:13:09;;;;;;;1999.90;999.90;;;;;;;9.17;66.76;100813.22;15433310;28;20198;-62
2022/03/29 02:20:42;;;;;;;1999.90;999.90;;;;;;;9.05;66.99;100826.94;15449181;28;20043;-61
2022/03/29 02:28:15;;;;;;;1999.90;999.90;;;;;;;9.30;66.54;100814.28;15435040;28;20047;-62
2022/03/29 02:35:47;;;;;;;;;;;;;;;9.08;67.18;100810.44;15450999;28;20507;-59
2022/03/29 02:43:21;;;;;;;1999.90;999.90;;;;;;;9.39;66.16;100815.13;15462383;28;20370;-59
2022/03/29 02:50:53;;;;;;;1999.90;999.90;;;;;;;9.01;67.50;100821.19;15472264;28;20055;-61
2022/03/29 02:58:26;;;;;;;1999.90;999.90;;;;;;;9.32;66.27;100820.34;15459572;28;20129;-62
2022/03/29 03:05:59;;;;;;;1999.90;999.90;;;;;;;9.25;66.49;100806.88;15460625;28;20132;-62
2022/03/29 03:13:33;;;;;;;1999.90;999.90;;;;;;;9.15;66.73;100810.78;15458256;28;20094;-61
2022/03/29 03:21:05;;;;;;;1999.90;999.90;;;;;;;9.18;66.82;100809.31;15441908;28;20122;-61
2022/03/29 03:28:39;;;;;;;1999.90;999.90;;;;;;;8.98;67.27;100798.75;15444249;28;20471;-62
2022/03/29 03:36:11;;;;;;;1999.90;999.90;;;;;;;9.20;66.61;100795.91;15477162;28;20062;-62
2022/03/29 03:43:44;;;;;;;1999.90;999.90;;;;;;;9.49;65.42;100787.81;15448533;28;20520;-62
2022/03/29 03:51:16;;;;;;;;;;;;;;;9.30;65.68;100787.25;15440918;28;20130;-61
2022/03/29 03:58:56;;;;;;;1999.90;999.90;;;;;;;9.25;66.13;100774.28;15441213;28;20310;-62
2022/03/29 04:06:29;;;;;;;1999.90;999.90;;;;;;;9.31;66.05;100782.50;15438598;28;20050;-61
2022/03/29 04:14:12;;;;;;;1999.90;999.90;;;;;;;9.15;66.34;100784.91;15438732;28;20407;-61
2022/03/29 04:21:46;;;;;;;;;;;;;;;9.54;64.95;100778.47;15436137;28;20463;-60
2022/03/29 04:29:20;;;;;;;1999.90;999.90;;;;;;;9.15;66.74;100770.97;15435687;28;20391;-62
2022/03/29 04:36:52;;;;;;;1999.90;999.90;;;;;;;9.25;66.02;100768.72;15435865;28;20125;-61
2022/03/29 04:44:26;;;;;;;1999.90;999.90;;;;;;;9.28;65.52;100760.88;15435937;28;20050;-62
2022/03/29 04:52:03;;;;;;;1999.90;999.90;;;;;;;9.46;64.98;100755.00;15450009;28;20068;-61
2022/03/29 04:59:37;;;;;;;1999.90;999.90;;;;;;;9.43;64.43;100744.53;15451397;28;20067;-59
2022/03/29 05:07:13;;;;;;;1999.90;999.90;;;;;;;9.18;64.17;100750.84;15435135;28;20050;-61
2022/03/29 05:14:46;;;;;;;1999.90;999.90;;;;;;;9.30;63.93;100747.44;15436137;28;20046;-58
2022/03/29 05:22:18;;;;;;;1999.90;999.90;;;;;;;9.12;64.50;100744.59;15434416;28;20133;-61
2022/03/29 05:29:52;;;;;;;1999.90;999.90;;;;;;;9.33;64.16;100746.78;15433755;28;20043;-60
2022/03/29 05:37:26;;;;;;;1999.90;999.90;;;;;;;9.49;63.49;100754.38;15448741;28;20047;-59
2022/03/29 05:45:00;;;;;;;1999.90;999.90;;;;;;;9.54;63.78;100758.97;15432354;28;20074;-61
2022/03/29 05:52:32;;;;;;;1999.90;999.90;;;;;;;9.40;62.77;100756.31;15448106;28;20054;-58
2022/03/29 06:00:08;;;;;;;1999.90;999.90;;;;;;;9.14;62.76;100752.63;15433105;28;20043;-61
2022/03/29 06:07:41;;;;;;;1999.90;999.90;;;;;;;9.01;63.05;100759.13;15432789;28;20058;-64
2022/03/29 06:15:20;;;;;;;1999.90;999.90;;;;;;;9.30;61.96;100751.06;15440941;28;20133;-61
2022/03/29 06:22:52;;;;;;;1999.90;999.90;;;;;;;9.43;61.49;100757.63;15444098;28;20057;-61
2022/03/29 06:30:28;;;;;;;1999.90;999.90;;;;;;;9.33;61.82;100766.28;15443113;28;20054;-62
2022/03/29 06:38:01;;;;;;;1999.90;999.90;;;;;;;9.23;62.03;100761.84;15442249;28;20529;-62
2022/03/29 06:45:35;;;;;;;1999.90;999.90;;;;;;;9.61;61.24;100773.25;15458195;28;20051;-62
2022/03/29 06:53:07;;;;;;;1999.90;999.90;;;;;;;9.62;60.38;100772.09;15449304;28;20085;-61
2022/03/29 07:00:40;;;;;;;1999.90;999.90;;;;;;;9.78;60.33;100772.44;15453096;28;20078;-60
2022/03/29 07:08:16;;;;;;;1999.90;999.90;;;;;;;10.15;59.11;100764.59;15459986;28;20396;-61
2022/03/29 07:15:50;;;;;;;1999.90;999.90;;;;;;;10.20;58.91;100767.19;15442722;28;20055;-59
2022/03/29 07:23:22;;;;;;;1999.90;999.90;;;;;;;10.24;57.39;100763.47;15455942;28;20050;-60
2022/03/29 07:31:09;;;;;;;1999.90;999.90;;;;;;;10.45;56.65;100758.00;15439793;28;20066;-61
2022/03/29 07:38:42;;;;;;;1999.90;999.90;;;;;;;10.97;55.69;100758.69;15455186;28;20061;-61
2022/03/29 07:46:20;;;;;;;1999.90;999.90;;;;;;;11.44;52.70;100754.97;15439409;28;20570;-62
2022/03/29 07:53:57;;;;;;;1999.90;999.90;;;;;;;11.62;52.60;100756.50;15439244;28;20042;-60
2022/03/29 08:01:33;;;;;;;1999.90;999.90;;;;;;;11.95;52.71;100741.81;15438187;28;20054;-59
2022/03/29 08:09:06;;;;;;;1999.90;999.90;;;;;;;11.53;54.68;100744.56;15421019;28;20054;-59
2022/03/29 08:16:41;;;;;;;1999.90;999.90;;;;;;;11.41;54.23;100739.72;15437156;28;20449;-61
2022/03/29 08:24:15;;;;;;;1999.90;999.90;;;;;;;11.87;51.91;100729.53;15438506;28;20088;-60
2022/03/29 08:31:54;;;;;;;1999.90;999.90;;;;;;;13.62;47.09;100722.41;15451037;28;20070;-60
2022/03/29 08:39:28;;;;;;;1999.90;999.90;;;;;;;15.13;43.59;100715.03;15477114;28;20039;-59
2022/03/29 08:47:12;;;;;;;1999.90;999.90;;;;;;;15.67;41.16;100703.06;15468104;28;20058;-60
2022/03/29 08:54:45;;;;;;;1999.90;999.90;;;;;;;17.05;39.02;100706.16;15431888;28;20050;-60
2022/03/29 09:02:20;;;;;;;1999.90;999.90;;;;;;;17.14;38.61;100701.06;15434550;28;20054;-60
2022/03/29 09:10:03;;;;;;;1999.90;999.90;;;;;;;16.78;39.43;100697.66;15434431;28;20051;-60
2022/03/29 09:17:39;;;;;;;1999.90;999.90;;;;;;;17.52;38.88;100700.88;15434589;28;20071;-59
2022/03/29 09:25:18;;;;;;;1999.90;999.90;;;;;;;16.37;37.72;100688.84;15433807;28;20055;-59
2022/03/29 09:32:54;;;;;;;1999.90;999.90;;;;;;;18.13;36.32;100679.94;15432803;28;20050;-58
2022/03/29 09:40:35;;;;;;;1999.90;999.90;;;;;;;17.02;36.96;100688.00;15434051;28;20642;-59
2022/03/29 09:48:32;;;;;;;1999.90;999.90;;;;;;;18.12;35.69;100680.31;15439247;28;20042;-60
2022/03/29 09:56:05;;;;;;;1999.90;999.90;;;;;;;16.66;39.24;100670.44;15461014;28;20074;-59
2022/03/29 10:03:38;;;;;;;1999.90;999.90;;;;;;;18.22;33.98;100659.03;15443864;28;20050;-60
2022/03/29 10:11:14;;;;;;;1999.90;999.90;;;;;;;18.86;35.11;100646.41;15444942;28;20043;-59
2022/03/29 10:18:47;;;;;;;1999.90;999.90;;;;;;;18.16;35.69;100659.41;15442912;28;20472;-59
2022/03/29 10:26:22;;;;;;;1999.90;999.90;;;;;;;17.91;35.64;100640.53;15443400;28;20053;-60
2022/03/29 10:34:17;;;;;;;1999.90;999.90;;;;;;;19.46;32.67;100633.88;15444592;28;20085;-60
2022/03/29 10:41:51;;;;;;;1999.90;999.90;;;;;;;17.06;35.88;100629.66;15445499;28;20668;-58
2022/03/29 10:49:28;;;;;;;1999.90;999.90;;;;;;;18.88;33.95;100615.72;15465720;28;20050;-58
2022/03/29 10:57:02;;;;;;;1999.90;999.90;;;;;;;18.38;34.24;100609.59;15446558;28;20680;-60
2022/03/29 11:04:36;;;;;;;1999.90;999.90;;;;;;;18.81;33.87;100597.88;15421290;28;20101;-57
2022/03/29 11:12:37;;;;;;;1999.90;999.90;;;;;;;20.03;32.55;100603.03;15442165;28;20104;-60
2022/03/29 11:20:32;;;;;;;1999.90;999.90;;;;;;;18.48;34.10;100599.59;15465212;28;20046;-60
2022/03/29 11:28:08;;;;;;;1999.90;999.90;;;;;;;19.16;32.36;100586.00;15461901;28;20564;-58
2022/03/29 11:35:52;;;;;;;1999.90;999.90;;;;;;;16.13;36.99;100568.91;15438657;28;20041;-60
2022/03/29 11:43:25;;;;;;;1999.90;999.90;;;;;;;18.82;34.26;100574.06;15439834;28;20440;-60
2022/03/29 11:51:00;;;;;;;1999.90;999.90;;;;;;;19.48;31.79;100567.19;15454952;28;20117;-60
2022/03/29 11:58:34;;;;;;;1999.90;999.90;;;;;;;19.13;32.75;100552.88;15454298;28;20047;-60
2022/03/29 12:06:11;;;;;;;1999.90;999.90;;;;;;;17.09;35.78;100533.09;15437935;28;20507;-61
2022/03/29 12:13:45;;;;;;;1999.90;999.90;;;;;;;16.76;36.68;100532.97;15452610;28;20050;-62
2022/03/29 12:21:21;;;;;;;1999.90;999.90;;;;;;;18.37;34.95;100516.78;15452946;28;20430;-60
2022/03/29 12:28:54;;;;;;;1999.90;999.90;;;;;;;19.01;34.49;100508.78;15452601;28;20054;-61
2022/03/29 12:36:28;;;;;;;1999.90;999.90;;;;;;;18.58;34.28;100504.84;15436028;28;20093;-60
2022/03/29 12:44:01;;;;;;;1999.90;999.90;;;;;;;18.72;33.08;100485.97;15436760;28;20054;-62
2022/03/29 12:51:36;;;;;;;;;;;;;;;18.11;34.28;100466.91;15451854;28;20055;-62
2022/03/29 12:59:31;;;;;;;1999.90;999.90;;;;;;;18.10;33.96;100454.00;15436513;28;20310;-61
2022/03/29 13:07:09;;;;;;;1999.90;999.90;;;;;;;19.81;31.90;100440.78;15447837;28;20444;-62
2022/03/29 13:14:43;;;;;;;1999.90;999.90;;;;;;;18.98;33.32;100433.22;15434888;28;20047;-62
2022/03/29 13:22:17;;;;;;;1999.90;999.90;;;;;;;16.54;36.57;100430.41;15454321;28;20492;-62
2022/03/29 13:29:49;;;;;;;1999.90;999.90;;;;;;;17.29;35.67;100418.91;15433760;28;20043;-62
2022/03/29 13:37:23;;;;;;;1999.90;999.90;;;;;;;17.19;35.52;100408.34;15434378;28;20051;-61
2022/03/29 13:44:55;;;;;;;1999.90;999.90;;;;;;;16.41;35.66;100401.66;15434123;28;20504;-61
2022/03/29 13:52:29;;;;;;;1999.90;999.90;;;;;;;16.17;35.92;100402.94;15435441;28;20093;-61
2022/03/29 14:00:04;;;;;;;1999.90;999.90;;;;;;;15.83;37.00;100385.88;15435756;28;20484;-60
2022/03/29 14:07:46;;;;;;;1999.90;999.90;;;;;;;16.25;36.40;100375.66;15440742;28;20039;-61
2022/03/29 14:15:20;;;;;;;1999.90;999.90;;;;;;;15.84;36.35;100364.22;15435410;28;20129;-58
2022/03/29 14:22:53;;;;;;;1999.90;999.90;;;;;;;16.62;35.90;100356.91;15433288;28;20667;-59
2022/03/29 14:30:26;;;;;;;;;;;;;;;16.50;36.74;100345.06;15457657;23;20078;-61
2022/03/29 14:37:59;;;;;;;1999.90;999.90;;;;;;;15.77;36.93;100327.53;15433392;28;19938;-60
2022/03/29 14:45:31;;;;;;;1999.90;999.90;;;;;;;16.56;36.07;100341.50;15418429;28;20453;-61
2022/03/29 14:53:06;;;;;;;1999.90;999.90;;;;;;;15.50;35.08;100333.06;15413397;28;20066;-61
2022/03/29 15:00:38;;;;;;;1999.90;999.90;;;;;;;15.62;35.41;100334.91;15431815;28;20089;-60
2022/03/29 15:08:12;;;;;;;1999.90;999.90;;;;;;;15.00;35.81;100318.09;15432650;28;20094;-61
2022/03/29 15:15:44;;;;;;;;;;;;;;;15.67;36.00;100306.47;15432968;28;20047;-61
2022/03/29 15:23:17;;;;;;;1999.90;999.90;;;;;;;16.15;35.17;100307.59;15431953;28;20169;-62
2022/03/29 15:30:49;;;;;;;;;;;;;;;16.06;34.32;100297.81;15431913;28;20073;-61
2022/03/29 15:38:23;;;;;;;1999.90;999.90;;;;;;;15.12;35.77;100302.28;15431738;28;20012;-60
2022/03/29 15:45:55;;;;;;;1999.90;999.90;;;;;;;15.61;34.93;100279.84;15429049;28;20051;-61
2022/03/29 15:53:30;;;;;;;1999.90;999.90;;;;;;;14.98;35.77;100285.97;15430250;28;20097;-61
2022/03/29 16:01:04;;;;;;;1999.90;999.90;;;;;;;15.19;35.46;100275.09;15431338;28;20070;-61
2022/03/29 16:08:39;;;;;;;1999.90;999.90;;;;;;;14.76;35.79;100272.69;15429650;28;20050;-62
2022/03/29 16:16:11;;;;;;;1999.90;999.90;;;;;;;14.28;36.00;100272.94;15427894;28;20138;-61
2022/03/29 16:23:45;;;;;;;1999.90;999.90;;;;;;;14.17;36.35;100269.06;15428199;28;20356;-62
2022/03/29 16:31:19;;;;;;;1999.90;999.90;;;;;;;14.12;37.01;100272.19;15425374;28;20055;-60
2022/03/29 16:38:53;;;;;;;1999.90;999.90;;;;;;;13.88;36.78;100258.44;15426791;28;20137;-60
2022/03/29 16:46:25;;;;;;;1999.90;999.90;;;;;;;14.13;36.99;100268.19;15425584;28;20053;-60
2022/03/29 16:53:59;;;;;;;1999.90;999.90;;;;;;;14.03;36.91;100258.34;15425983;28;20451;-63
2022/03/29 17:01:31;;;;;;;;;;;;;;;13.94;37.35;100259.75;15410167;28;20409;-59
2022/03/29 17:09:06;;;;;;;1999.90;999.90;;;;;;;13.59;38.25;100254.97;15427986;28;19930;-61
2022/03/29 17:16:39;;;;;;;1999.90;999.90;;;;;;;13.41;39.20;100251.72;15372622;28;20098;-60
2022/03/29 17:24:15;;;;;;;1999.90;999.90;;;;;;;13.73;38.54;100266.50;15364069;29;20110;-61
2022/03/29 17:31:48;;;;;;;1999.90;999.90;;;;;;;13.52;38.80;100257.59;15355932;28;20040;-61
2022/03/29 17:39:34;;;;;;;1999.90;999.90;;;;;;;13.69;39.25;100265.59;15364125;28;20043;-62
2022/03/29 17:47:08;;;;;;;1999.90;999.90;;;;;;;13.48;39.08;100265.91;15356859;28;20047;-62
2022/03/29 17:54:42;;;;;;;1999.90;999.90;;;;;;;13.50;39.28;100271.97;15378739;28;20043;-62
2022/03/29 18:02:15;;;;;;;1999.90;999.90;;;;;;;13.18;39.64;100273.94;15420276;28;20086;-61
2022/03/29 18:09:48;;;;;;;1999.90;999.90;;;;;;;12.93;40.63;100270.50;15432141;28;20050;-60
2022/03/29 18:17:20;;;;;;;;;;;;;;;13.10;40.94;100272.13;15355725;29;20102;-61
2022/03/29 18:24:54;;;;;;;1999.90;999.90;;;;;;;12.97;42.50;100276.19;15377806;28;19926;-61
2022/03/29 18:32:26;;;;;;;1999.90;999.90;;;;;;;12.93;42.66;100272.50;15398898;28;20055;-62
2022/03/29 18:40:01;;;;;;;1999.90;999.90;;;;;;;12.97;43.34;100274.19;15341406;29;20057;-62
2022/03/29 18:47:34;;;;;;;1999.90;999.90;;;;;;;12.76;43.34;100284.00;15388390;28;20464;-60
2022/03/29 18:55:27;;;;;;;1999.90;999.90;;;;;;;12.43;43.79;100279.50;15367103;28;20334;-64
2022/03/29 19:03:00;;;;;;;1999.90;999.90;;;;;;;12.08;43.74;100277.28;15374613;28;20054;-61
2022/03/29 19:10:34;;;;;;;1999.90;999.90;;;;;;;11.74;45.07;100270.22;15373877;28;20055;-62
2022/03/29 19:18:07;;;;;;;1999.90;999.90;;;;;;;11.49;45.30;100277.00;15348758;28;20138;-61
2022/03/29 19:25:41;;;;;;;1999.90;999.90;;;;;;;11.24;46.34;100282.56;15373316;28;20071;-61
2022/03/29 19:33:14;;;;;;;1999.90;999.90;;;;;;;10.98;47.39;100276.50;15368193;28;20042;-65
2022/03/29 19:40:47;;;;;;;1999.90;999.90;;;;;;;10.85;46.68;100274.84;15366798;29;20468;-62
2022/03/29 19:48:19;;;;;;;1999.90;999.90;;;;;;;10.67;46.84;100274.22;15367544;28;20497;-62
2022/03/29 19:55:53;;;;;;;1999.90;999.90;;;;;;;10.38;47.85;100272.38;15368867;28;20532;-63
2022/03/29 20:03:25;;;;;;;1999.90;999.90;;;;;;;10.15;48.77;100266.31;15424685;28;20054;-61
2022/03/29 20:10:59;;;;;;;1999.90;999.90;;;;;;;10.07;49.29;100272.78;15429385;28;20109;-61
2022/03/29 20:18:31;;;;;;;;;;;;;;;9.93;49.92;100272.25;15428337;28;20516;-60
2022/03/29 20:26:06;;;;;;;1999.90;999.90;;;;;;;9.59;50.73;100268.53;15429028;28;19926;-60
2022/03/29 20:33:40;;;;;;;1999.90;999.90;;;;;;;9.33;51.10;100265.06;15427395;28;20046;-60
2022/03/29 20:41:13;;;;;;;1999.90;999.90;;;;;;;9.17;51.87;100259.25;15428012;28;20512;-58
2022/03/29 20:48:46;;;;;;;1999.90;999.90;;;;;;;9.02;51.74;100262.59;15427359;28;20091;-59
2022/03/29 20:56:20;;;;;;;1999.90;999.90;;;;;;;8.95;52.44;100263.91;15426121;28;20070;-60
2022/03/29 21:03:52;;;;;;;1999.90;999.90;;;;;;;8.92;51.88;100267.38;15425044;28;20703;-60
2022/03/29 21:11:26;;;;;;;1999.90;999.90;;;;;;;8.99;51.88;100254.91;15426128;28;20039;-59
2022/03/29 21:18:58;;;;;;;;;;;;;;;9.05;51.53;100248.00;15425090;28;20500;-61
2022/03/29 21:26:35;;;;;;;1999.90;999.90;;;;;;;8.88;51.67;100252.50;15424536;28;19922;-61
2022/03/29 21:34:09;;;;;;;1999.90;999.90;;;;;;;8.72;52.59;100256.16;15423683;28;20051;-60
2022/03/29 21:41:43;;;;;;;1999.90;999.90;;;;;;;8.67;52.13;100257.97;15318114;28;20262;-60
2022/03/29 21:49:16;;;;;;;1999.90;999.90;;;;;;;8.53;52.60;100262.88;15416013;28;20043;-61
2022/03/29 21:57:08;;;;;;;1999.90;999.90;;;;;;;8.44;52.45;100266.84;15424367;28;20062;-59
2022/03/29 22:04:59;;;;;;;1999.90;999.90;;;;;;;8.42;52.54;100269.94;15384466;28;20039;-60
2022/03/29 22:12:32;;;;;;;1999.90;999.90;;;;;;;7.97;53.38;100275.03;15367060;28;20050;-60
2022/03/29 22:20:05;;;;;;;1999.90;999.90;;;;;;;7.97;53.52;100269.47;15391095;28;20074;-60
2022/03/29 22:27:40;;;;;;;1999.90;999.90;;;;;;;7.81;53.93;100272.72;15410439;28;20054;-59
2022/03/29 22:35:15;;;;;;;1999.90;999.90;;;;;;;7.89;54.21;100268.31;15436997;28;20043;-61
2022/03/29 22:42:50;;;;;;;1999.90;999.90;;;;;;;7.90;53.80;100274.69;15426747;28;20506;-59
2022/03/29 22:50:23;;;;;;;1999.90;999.90;;;;;;;7.65;54.14;100276.28;15425538;28;20074;-62
2022/03/29 22:57:58;;;;;;;1999.90;999.90;;;;;;;7.73;54.13;100279.09;15432394;28;20050;-60
2022/03/29 23:05:30;;;;;;;1999.90;999.90;;;;;;;7.62;54.69;100271.41;15424059;28;20126;-58
2022/03/29 23:13:03;;;;;;;1999.90;999.90;;;;;;;7.51;54.47;100273.66;15386216;28;20145;-60
2022/03/29 23:20:36;;;;;;;1999.90;999.90;;;;;;;7.29;54.80;100270.97;15433576;28;20050;-60
2022/03/29 23:28:09;;;;;;;1999.90;999.90;;;;;;;7.24;54.81;100255.28;15432449;28;20141;-61
2022/03/29 23:35:44;;;;;;;1999.90;999.90;;;;;;;7.07;55.25;100255.22;15415906;28;20047;-62
2022/03/29 23:43:19;;;;;;;1999.90;999.90;;;;;;;6.79;54.85;100257.41;15431578;28;20047;-60
2022/03/29 23:50:51;;;;;;;1999.90;999.90;;;;;;;6.75;55.46;100253.63;15433072;28;20190;-59
2022/03/29 23:58:25;;;;;;;1999.90;999.90;;;;;;;6.68;56.28;100267.13;15431117;28;20055;-60
